createdAt,value
2023-04-22T00:01:36.616Z,5.60
2023-04-22T00:04:03.835Z,5.60
2023-04-22T00:06:32.064Z,5.60
2023-04-22T00:08:58.953Z,5.50
2023-04-22T00:11:26.290Z,5.50
2023-04-22T00:13:53.217Z,5.50
2023-04-22T00:16:20.264Z,5.40
2023-04-22T00:18:47.110Z,5.40
2023-04-22T00:21:13.828Z,5.40
2023-04-22T00:23:40.689Z,5.40
2023-04-22T00:26:07.452Z,5.40
2023-04-22T00:28:34.552Z,5.40
2023-04-22T00:31:03.364Z,5.40
2023-04-22T00:33:31.014Z,5.40
2023-04-22T00:35:57.817Z,5.40
2023-04-22T00:38:24.807Z,5.40
2023-04-22T00:40:51.550Z,5.30
2023-04-22T00:43:18.374Z,5.30
2023-04-22T00:45:45.133Z,5.20
2023-04-22T00:48:12.875Z,5.20
2023-04-22T00:50:39.714Z,5.20
2023-04-22T00:53:06.518Z,5.20
2023-04-22T00:55:33.317Z,5.20
2023-04-22T00:58:00.879Z,5.20
2023-04-22T01:00:28.406Z,5.20
2023-04-22T01:02:55.967Z,5.20
2023-04-22T01:05:24.047Z,5.20
2023-04-22T01:07:51.286Z,5.20
2023-04-22T01:10:18.608Z,5.20
2023-04-22T01:12:45.715Z,5.10
2023-04-22T01:15:12.567Z,5.20
2023-04-22T01:17:39.440Z,5.10
2023-04-22T01:20:10.104Z,5.10
2023-04-22T01:22:40.674Z,5.20
2023-04-22T01:25:08.832Z,5.20
2023-04-22T01:27:36.213Z,5.20
2023-04-22T01:30:04.188Z,5.20
2023-04-22T01:32:31.160Z,5.30
2023-04-22T01:34:58.070Z,5.20
2023-04-22T01:37:24.832Z,5.20
2023-04-22T01:39:51.693Z,5.20
2023-04-22T01:42:19.028Z,5.10
2023-04-22T01:44:46.237Z,5.10
2023-04-22T01:47:13.712Z,5.10
2023-04-22T01:49:40.842Z,5.10
2023-04-22T01:52:07.953Z,5.00
2023-04-22T01:54:35.360Z,5.00
2023-04-22T01:57:06.694Z,5.00
2023-04-22T01:59:33.459Z,4.90
2023-04-22T02:02:00.690Z,4.90
2023-04-22T02:04:27.606Z,4.90
2023-04-22T02:06:54.366Z,4.80
2023-04-22T02:09:21.103Z,4.80
2023-04-22T02:11:47.849Z,4.80
2023-04-22T02:14:14.614Z,4.80
2023-04-22T02:16:42.406Z,4.80
2023-04-22T02:19:09.135Z,4.80
2023-04-22T02:21:36.217Z,4.80
2023-04-22T02:24:02.952Z,4.80
2023-04-22T02:26:30.809Z,4.80
2023-04-22T02:28:57.572Z,4.90
2023-04-22T02:31:24.336Z,4.90
2023-04-22T02:33:51.103Z,4.90
2023-04-22T02:36:17.836Z,4.90
2023-04-22T02:38:44.635Z,4.80
2023-04-22T02:41:11.421Z,4.80
2023-04-22T02:43:38.190Z,4.80
2023-04-22T02:46:05.008Z,4.80
2023-04-22T02:48:31.816Z,4.80
2023-04-22T02:50:58.593Z,4.80
2023-04-22T02:53:25.417Z,4.80
2023-04-22T02:55:52.390Z,4.80
2023-04-22T02:58:19.454Z,4.70
2023-04-22T03:00:46.288Z,4.70
2023-04-22T03:03:13.463Z,4.70
2023-04-22T03:05:40.622Z,4.70
2023-04-22T03:08:07.399Z,4.60
2023-04-22T03:10:34.163Z,4.70
2023-04-22T03:13:01.042Z,4.70
2023-04-22T03:15:27.818Z,4.60
2023-04-22T03:17:54.728Z,4.60
2023-04-22T03:20:21.840Z,4.60
2023-04-22T03:22:48.622Z,4.60
2023-04-22T03:25:15.387Z,4.60
2023-04-22T03:27:42.167Z,4.60
2023-04-22T03:30:09.258Z,4.60
2023-04-22T03:32:36.058Z,4.60
2023-04-22T03:35:02.894Z,4.70
2023-04-22T03:37:29.661Z,4.70
2023-04-22T03:39:56.391Z,4.70
2023-04-22T03:42:23.134Z,4.80
2023-04-22T03:44:49.876Z,4.80
2023-04-22T03:47:16.732Z,4.80
2023-04-22T03:49:43.996Z,4.80
2023-04-22T03:52:10.752Z,4.90
2023-04-22T03:54:37.493Z,5.00
2023-04-22T03:57:04.295Z,5.00
2023-04-22T03:59:31.070Z,4.90
2023-04-22T04:01:57.968Z,4.90
2023-04-22T04:04:25.319Z,4.80
2023-04-22T04:06:52.440Z,4.80
2023-04-22T04:09:19.264Z,4.80
2023-04-22T04:11:46.062Z,4.70
2023-04-22T04:14:12.886Z,4.70
2023-04-22T04:16:39.701Z,4.70
2023-04-22T04:19:06.891Z,4.70
2023-04-22T04:21:34.187Z,4.70
2023-04-22T04:24:00.935Z,4.70
2023-04-22T04:26:27.771Z,4.80
2023-04-22T04:28:55.470Z,4.80
2023-04-22T04:31:24.746Z,4.80
2023-04-22T04:33:52.434Z,4.80
2023-04-22T04:36:19.842Z,4.80
2023-04-22T04:38:47.731Z,4.80
2023-04-22T04:41:14.511Z,4.90
2023-04-22T04:43:41.310Z,4.90
2023-04-22T04:46:08.398Z,5.00
2023-04-22T04:48:36.345Z,5.10
2023-04-22T04:51:04.435Z,5.20
2023-04-22T04:53:31.281Z,5.40
2023-04-22T04:55:58.064Z,5.40
2023-04-22T04:58:24.890Z,5.50
2023-04-22T05:00:51.783Z,5.60
2023-04-22T05:03:18.589Z,5.70
2023-04-22T05:05:48.329Z,5.70
2023-04-22T05:08:15.272Z,5.80
2023-04-22T05:10:42.682Z,5.90
2023-04-22T05:13:09.434Z,6.00
2023-04-22T05:15:36.396Z,6.10
2023-04-22T05:18:04.515Z,6.30
2023-04-22T05:20:32.642Z,6.50
2023-04-22T05:23:01.429Z,6.60
2023-04-22T05:25:33.530Z,6.70
2023-04-22T05:28:00.324Z,6.70
2023-04-22T05:30:29.613Z,6.90
2023-04-22T05:32:56.506Z,7.00
2023-04-22T05:35:23.347Z,7.10
2023-04-22T05:37:50.402Z,7.20
2023-04-22T05:40:17.176Z,7.30
2023-04-22T05:42:44.015Z,7.40
2023-04-22T05:45:11.116Z,7.50
2023-04-22T05:47:37.953Z,7.60
2023-04-22T05:50:05.110Z,7.70
2023-04-22T05:52:31.903Z,7.80
2023-04-22T05:54:58.641Z,7.80
2023-04-22T05:57:25.826Z,8.00
2023-04-22T05:59:57.472Z,8.20
2023-04-22T06:02:27.331Z,8.30
2023-04-22T06:04:54.566Z,8.50
2023-04-22T06:07:21.619Z,8.80
2023-04-22T06:09:48.410Z,8.90
2023-04-22T06:12:15.409Z,9.00
2023-04-22T06:14:42.213Z,9.20
2023-04-22T06:17:09.680Z,9.30
2023-04-22T06:19:37.259Z,9.50
2023-04-22T06:22:04.260Z,9.60
2023-04-22T06:24:31.318Z,9.70
2023-04-22T06:26:58.267Z,9.90
2023-04-22T06:29:25.169Z,9.90
2023-04-22T06:31:53.450Z,10.10
2023-04-22T06:34:20.359Z,10.30
2023-04-22T06:36:47.136Z,10.50
2023-04-22T06:39:13.943Z,10.60
2023-04-22T06:41:42.216Z,10.80
2023-04-22T06:44:09.016Z,10.90
2023-04-22T06:46:35.936Z,11.00
2023-04-22T06:49:02.703Z,11.10
2023-04-22T06:51:29.467Z,11.20
2023-04-22T06:53:58.193Z,11.20
2023-04-22T06:56:25.728Z,11.40
2023-04-22T06:58:52.581Z,11.50
2023-04-22T07:01:19.384Z,11.50
2023-04-22T07:03:46.334Z,11.70
2023-04-22T07:06:13.248Z,11.70
2023-04-22T07:08:39.995Z,11.80
2023-04-22T07:11:06.798Z,12.00
2023-04-22T07:13:34.203Z,12.10
2023-04-22T07:16:01.353Z,12.20
2023-04-22T07:18:29.046Z,12.40
2023-04-22T07:20:55.898Z,12.50
2023-04-22T07:23:22.637Z,12.60
2023-04-22T07:25:49.508Z,12.80
2023-04-22T07:28:24.393Z,12.90
2023-04-22T07:31:15.482Z,13.00
2023-04-22T07:33:42.421Z,13.20
2023-04-22T07:36:09.214Z,13.40
2023-04-22T07:38:36.416Z,13.60
2023-04-22T07:41:03.174Z,13.70
2023-04-22T07:43:30.318Z,13.80
2023-04-22T07:45:57.527Z,13.90
2023-04-22T07:48:24.381Z,14.00
2023-04-22T07:50:51.251Z,14.10
2023-04-22T07:53:18.114Z,14.20
2023-04-22T07:55:45.217Z,14.40
2023-04-22T07:58:12.311Z,14.50
2023-04-22T08:00:39.274Z,14.70
2023-04-22T08:03:06.524Z,14.90
2023-04-22T08:05:33.656Z,15.00
2023-04-22T08:08:00.460Z,15.20
2023-04-22T08:10:28.884Z,15.20
2023-04-22T08:12:58.147Z,15.30
2023-04-22T08:15:25.560Z,15.40
2023-04-22T08:17:52.561Z,15.50
2023-04-22T08:20:22.219Z,15.60
2023-04-22T08:23:00.172Z,15.70
2023-04-22T08:27:55.187Z,15.90
2023-04-22T08:30:22.355Z,16.00
2023-04-22T08:32:49.405Z,16.00
2023-04-22T08:35:16.364Z,16.20
2023-04-22T08:37:43.237Z,16.30
2023-04-22T08:40:10.268Z,16.30
2023-04-22T08:42:37.574Z,16.50
2023-04-22T08:45:04.996Z,16.60
2023-04-22T08:47:35.587Z,16.80
2023-04-22T08:50:03.918Z,17.00
2023-04-22T08:52:31.373Z,17.20
2023-04-22T14:56:36.757Z,25.00
2023-04-22T14:59:03.856Z,24.80
2023-04-22T15:01:31.669Z,24.60
2023-04-22T15:03:59.094Z,24.50
2023-04-22T15:06:27.547Z,24.50
2023-04-22T15:08:56.000Z,24.40
2023-04-22T15:11:22.862Z,24.40
2023-04-22T15:13:49.699Z,24.50
2023-04-22T15:16:18.783Z,24.30
2023-04-22T15:18:45.809Z,24.40
2023-04-22T15:21:12.672Z,24.40
2023-04-22T15:23:39.522Z,24.40
2023-04-22T15:26:06.409Z,24.40
2023-04-22T15:28:33.787Z,24.40
2023-04-22T15:31:01.964Z,24.30
2023-04-22T15:33:29.055Z,24.20
2023-04-22T15:35:55.976Z,24.20
2023-04-22T15:38:23.682Z,24.10
2023-04-22T15:40:50.656Z,24.00
2023-04-22T15:43:17.445Z,23.90
2023-04-22T15:45:44.758Z,23.80
2023-04-22T15:48:11.605Z,23.70
2023-04-22T15:50:40.742Z,23.50
2023-04-22T15:53:07.746Z,23.50
2023-04-22T15:55:34.678Z,23.50
2023-04-22T15:58:02.743Z,23.50
2023-04-22T16:00:29.766Z,23.50
2023-04-22T16:02:56.782Z,23.40
2023-04-22T16:05:25.060Z,23.40
2023-04-22T16:07:55.788Z,23.40
2023-04-22T16:10:23.290Z,23.30
2023-04-22T16:12:51.781Z,23.20
2023-04-22T16:15:18.629Z,23.10
2023-04-22T16:17:45.626Z,23.00
2023-04-22T16:20:12.483Z,22.90
